sensor_id;sensor_type;location;lat;lon;timestamp;P1;durP1;ratioP1;P2;durP2;ratioP2
55989;SDS011;41875;55.806;38.082;2023-04-25T00:00:07;24.70;;;9.13;;
55989;SDS011;41875;55.806;38.082;2023-04-25T00:02:40;18.23;;;8.13;;
55989;SDS011;41875;55.806;38.082;2023-04-25T00:05:09;19.38;;;8.50;;
55989;SDS011;41875;55.806;38.082;2023-04-25T00:10:08;22.15;;;8.45;;
55989;SDS011;41875;55.806;38.082;2023-04-25T00:12:39;17.23;;;8.05;;
55989;SDS011;41875;55.806;38.082;2023-04-25T00:15:10;23.00;;;8.95;;
55989;SDS011;41875;55.806;38.082;2023-04-25T00:17:39;18.30;;;8.70;;
55989;SDS011;41875;55.806;38.082;2023-04-25T00:20:09;16.67;;;8.05;;
55989;SDS011;41875;55.806;38.082;2023-04-25T00:22:40;17.65;;;7.90;;
55989;SDS011;41875;55.806;38.082;2023-04-25T00:25:08;16.88;;;7.93;;
55989;SDS011;41875;55.806;38.082;2023-04-25T00:27:37;18.83;;;8.30;;
55989;SDS011;41875;55.806;38.082;2023-04-25T00:35:04;20.40;;;8.35;;
55989;SDS011;41875;55.806;38.082;2023-04-25T00:37:33;21.17;;;8.02;;
55989;SDS011;41875;55.806;38.082;2023-04-25T00:40:03;16.88;;;8.63;;
55989;SDS011;41875;55.806;38.082;2023-04-25T00:42:34;18.88;;;8.57;;
55989;SDS011;41875;55.806;38.082;2023-04-25T00:45:05;17.27;;;7.93;;
55989;SDS011;41875;55.806;38.082;2023-04-25T00:47:37;17.80;;;7.97;;
55989;SDS011;41875;55.806;38.082;2023-04-25T00:50:06;16.35;;;7.03;;
55989;SDS011;41875;55.806;38.082;2023-04-25T00:52:37;18.88;;;7.47;;
55989;SDS011;41875;55.806;38.082;2023-04-25T00:55:07;17.17;;;8.55;;
55989;SDS011;41875;55.806;38.082;2023-04-25T00:57:36;20.48;;;8.35;;
55989;SDS011;41875;55.806;38.082;2023-04-25T01:00:05;18.08;;;8.38;;
55989;SDS011;41875;55.806;38.082;2023-04-25T01:02:39;16.50;;;8.07;;
55989;SDS011;41875;55.806;38.082;2023-04-25T01:05:08;14.18;;;8.18;;
55989;SDS011;41875;55.806;38.082;2023-04-25T01:07:37;15.75;;;8.13;;
55989;SDS011;41875;55.806;38.082;2023-04-25T01:10:11;19.77;;;8.70;;
55989;SDS011;41875;55.806;38.082;2023-04-25T01:12:39;13.45;;;7.68;;
55989;SDS011;41875;55.806;38.082;2023-04-25T01:17:37;14.82;;;7.75;;
55989;SDS011;41875;55.806;38.082;2023-04-25T01:20:08;15.20;;;7.97;;
55989;SDS011;41875;55.806;38.082;2023-04-25T01:22:39;16.38;;;7.32;;
55989;SDS011;41875;55.806;38.082;2023-04-25T01:25:07;16.48;;;7.40;;
55989;SDS011;41875;55.806;38.082;2023-04-25T01:27:36;17.40;;;8.45;;
55989;SDS011;41875;55.806;38.082;2023-04-25T01:32:34;20.42;;;7.47;;
55989;SDS011;41875;55.806;38.082;2023-04-25T01:35:06;17.27;;;7.57;;
55989;SDS011;41875;55.806;38.082;2023-04-25T01:37:36;20.10;;;7.32;;
55989;SDS011;41875;55.806;38.082;2023-04-25T01:40:08;12.18;;;7.13;;
55989;SDS011;41875;55.806;38.082;2023-04-25T01:42:38;20.08;;;7.63;;
55989;SDS011;41875;55.806;38.082;2023-04-25T01:45:09;15.43;;;6.97;;
55989;SDS011;41875;55.806;38.082;2023-04-25T01:47:38;20.73;;;8.32;;
55989;SDS011;41875;55.806;38.082;2023-04-25T01:50:10;21.33;;;8.13;;
55989;SDS011;41875;55.806;38.082;2023-04-25T01:52:40;23.50;;;9.15;;
55989;SDS011;41875;55.806;38.082;2023-04-25T01:55:10;24.52;;;9.23;;
55989;SDS011;41875;55.806;38.082;2023-04-25T01:57:48;17.88;;;8.18;;
55989;SDS011;41875;55.806;38.082;2023-04-25T02:00:20;19.23;;;8.10;;
55989;SDS011;41875;55.806;38.082;2023-04-25T02:05:25;23.80;;;7.75;;
55989;SDS011;41875;55.806;38.082;2023-04-25T02:07:55;17.65;;;8.45;;
55989;SDS011;41875;55.806;38.082;2023-04-25T02:10:25;16.35;;;7.78;;
55989;SDS011;41875;55.806;38.082;2023-04-25T02:15:53;18.15;;;9.05;;
55989;SDS011;41875;55.806;38.082;2023-04-25T02:18:22;17.90;;;8.25;;
55989;SDS011;41875;55.806;38.082;2023-04-25T02:20:53;16.60;;;8.63;;
55989;SDS011;41875;55.806;38.082;2023-04-25T02:23:22;17.77;;;7.78;;
55989;SDS011;41875;55.806;38.082;2023-04-25T02:25:51;14.60;;;7.97;;
55989;SDS011;41875;55.806;38.082;2023-04-25T02:28:22;15.30;;;7.00;;
55989;SDS011;41875;55.806;38.082;2023-04-25T02:30:51;17.33;;;7.15;;
55989;SDS011;41875;55.806;38.082;2023-04-25T02:33:19;13.15;;;7.03;;
55989;SDS011;41875;55.806;38.082;2023-04-25T02:38:16;17.95;;;6.93;;
55989;SDS011;41875;55.806;38.082;2023-04-25T02:40:46;18.90;;;7.18;;
55989;SDS011;41875;55.806;38.082;2023-04-25T02:43:15;14.82;;;6.50;;
55989;SDS011;41875;55.806;38.082;2023-04-25T02:45:43;16.25;;;7.18;;
55989;SDS011;41875;55.806;38.082;2023-04-25T02:48:12;17.05;;;7.75;;
55989;SDS011;41875;55.806;38.082;2023-04-25T02:50:40;18.00;;;7.20;;
55989;SDS011;41875;55.806;38.082;2023-04-25T02:53:09;20.55;;;7.13;;
55989;SDS011;41875;55.806;38.082;2023-04-25T02:55:44;21.10;;;6.97;;
55989;SDS011;41875;55.806;38.082;2023-04-25T02:58:14;16.70;;;7.13;;
55989;SDS011;41875;55.806;38.082;2023-04-25T03:00:49;14.73;;;7.20;;
55989;SDS011;41875;55.806;38.082;2023-04-25T03:03:18;13.45;;;6.85;;
55989;SDS011;41875;55.806;38.082;2023-04-25T03:05:49;14.80;;;7.10;;
55989;SDS011;41875;55.806;38.082;2023-04-25T03:08:26;16.75;;;7.82;;
55989;SDS011;41875;55.806;38.082;2023-04-25T03:11:00;16.30;;;6.80;;
55989;SDS011;41875;55.806;38.082;2023-04-25T03:13:30;13.48;;;7.45;;
55989;SDS011;41875;55.806;38.082;2023-04-25T03:15:59;17.98;;;7.38;;
55989;SDS011;41875;55.806;38.082;2023-04-25T03:18:29;14.70;;;6.97;;
55989;SDS011;41875;55.806;38.082;2023-04-25T03:20:57;14.45;;;6.32;;
55989;SDS011;41875;55.806;38.082;2023-04-25T03:23:26;15.93;;;6.32;;
55989;SDS011;41875;55.806;38.082;2023-04-25T03:25:54;16.92;;;7.05;;
55989;SDS011;41875;55.806;38.082;2023-04-25T03:28:23;17.20;;;6.80;;
55989;SDS011;41875;55.806;38.082;2023-04-25T03:30:53;16.30;;;6.60;;
55989;SDS011;41875;55.806;38.082;2023-04-25T03:33:23;17.02;;;7.80;;
55989;SDS011;41875;55.806;38.082;2023-04-25T03:35:51;15.57;;;6.63;;
55989;SDS011;41875;55.806;38.082;2023-04-25T03:38:20;13.38;;;6.78;;
55989;SDS011;41875;55.806;38.082;2023-04-25T03:40:49;12.80;;;6.88;;
55989;SDS011;41875;55.806;38.082;2023-04-25T03:43:38;15.48;;;6.32;;
55989;SDS011;41875;55.806;38.082;2023-04-25T03:46:12;13.63;;;6.10;;
55989;SDS011;41875;55.806;38.082;2023-04-25T03:48:41;12.02;;;5.38;;
55989;SDS011;41875;55.806;38.082;2023-04-25T03:51:16;14.32;;;6.63;;
55989;SDS011;41875;55.806;38.082;2023-04-25T03:53:45;11.90;;;5.55;;
55989;SDS011;41875;55.806;38.082;2023-04-25T03:56:19;12.48;;;6.05;;
55989;SDS011;41875;55.806;38.082;2023-04-25T03:58:57;14.35;;;6.07;;
55989;SDS011;41875;55.806;38.082;2023-04-25T04:01:29;11.00;;;6.07;;
55989;SDS011;41875;55.806;38.082;2023-04-25T04:03:58;16.42;;;6.72;;
55989;SDS011;41875;55.806;38.082;2023-04-25T04:06:27;13.65;;;6.03;;
55989;SDS011;41875;55.806;38.082;2023-04-25T04:09:03;11.40;;;5.90;;
55989;SDS011;41875;55.806;38.082;2023-04-25T04:11:37;14.13;;;6.22;;
55989;SDS011;41875;55.806;38.082;2023-04-25T04:14:06;14.95;;;6.10;;
55989;SDS011;41875;55.806;38.082;2023-04-25T04:16:41;14.40;;;6.28;;
55989;SDS011;41875;55.806;38.082;2023-04-25T04:19:09;15.25;;;6.43;;
55989;SDS011;41875;55.806;38.082;2023-04-25T04:21:43;13.48;;;6.40;;
55989;SDS011;41875;55.806;38.082;2023-04-25T04:24:12;14.00;;;6.03;;
55989;SDS011;41875;55.806;38.082;2023-04-25T04:26:52;17.92;;;6.78;;
55989;SDS011;41875;55.806;38.082;2023-04-25T04:29:35;14.60;;;6.30;;
55989;SDS011;41875;55.806;38.082;2023-04-25T04:32:11;13.75;;;6.93;;
55989;SDS011;41875;55.806;38.082;2023-04-25T04:34:41;12.43;;;6.30;;
55989;SDS011;41875;55.806;38.082;2023-04-25T04:37:13;15.48;;;6.15;;
55989;SDS011;41875;55.806;38.082;2023-04-25T04:39:42;12.75;;;6.10;;
55989;SDS011;41875;55.806;38.082;2023-04-25T04:42:29;14.38;;;6.43;;
55989;SDS011;41875;55.806;38.082;2023-04-25T04:48:05;13.38;;;6.03;;
55989;SDS011;41875;55.806;38.082;2023-04-25T04:50:54;12.55;;;6.28;;
55989;SDS011;41875;55.806;38.082;2023-04-25T04:53:41;15.65;;;6.22;;
55989;SDS011;41875;55.806;38.082;2023-04-25T04:56:15;15.68;;;6.38;;
55989;SDS011;41875;55.806;38.082;2023-04-25T04:59:03;18.15;;;5.65;;
55989;SDS011;41875;55.806;38.082;2023-04-25T05:01:39;14.50;;;6.47;;
55989;SDS011;41875;55.806;38.082;2023-04-25T05:04:44;13.52;;;5.85;;
55989;SDS011;41875;55.806;38.082;2023-04-25T05:07:32;14.52;;;5.90;;
55989;SDS011;41875;55.806;38.082;2023-04-25T05:10:19;16.60;;;5.82;;
55989;SDS011;41875;55.806;38.082;2023-04-25T05:13:11;15.18;;;5.55;;
55989;SDS011;41875;55.806;38.082;2023-04-25T05:16:10;10.60;;;4.97;;
55989;SDS011;41875;55.806;38.082;2023-04-25T05:18:55;16.30;;;5.22;;
55989;SDS011;41875;55.806;38.082;2023-04-25T05:21:44;18.27;;;5.63;;
55989;SDS011;41875;55.806;38.082;2023-04-25T05:27:22;9.52;;;4.70;;
55989;SDS011;41875;55.806;38.082;2023-04-25T05:30:23;10.52;;;5.22;;
55989;SDS011;41875;55.806;38.082;2023-04-25T05:33:05;10.32;;;4.85;;
55989;SDS011;41875;55.806;38.082;2023-04-25T05:35:34;11.02;;;4.60;;
55989;SDS011;41875;55.806;38.082;2023-04-25T05:38:04;8.88;;;4.80;;
55989;SDS011;41875;55.806;38.082;2023-04-25T05:40:51;15.50;;;5.32;;
55989;SDS011;41875;55.806;38.082;2023-04-25T05:43:38;13.73;;;5.40;;
55989;SDS011;41875;55.806;38.082;2023-04-25T05:46:35;15.07;;;4.45;;
55989;SDS011;41875;55.806;38.082;2023-04-25T05:49:26;12.88;;;4.20;;
55989;SDS011;41875;55.806;38.082;2023-04-25T05:51:55;11.25;;;4.65;;
55989;SDS011;41875;55.806;38.082;2023-04-25T05:54:28;14.50;;;4.45;;
55989;SDS011;41875;55.806;38.082;2023-04-25T05:56:57;8.70;;;4.25;;
55989;SDS011;41875;55.806;38.082;2023-04-25T05:59:25;9.32;;;4.40;;
55989;SDS011;41875;55.806;38.082;2023-04-25T06:01:54;13.00;;;4.00;;
55989;SDS011;41875;55.806;38.082;2023-04-25T06:04:23;13.70;;;4.88;;
55989;SDS011;41875;55.806;38.082;2023-04-25T06:06:53;12.13;;;4.28;;
55989;SDS011;41875;55.806;38.082;2023-04-25T06:09:22;11.10;;;4.50;;
55989;SDS011;41875;55.806;38.082;2023-04-25T06:11:54;10.13;;;4.28;;
55989;SDS011;41875;55.806;38.082;2023-04-25T06:14:22;8.80;;;4.43;;
55989;SDS011;41875;55.806;38.082;2023-04-25T06:16:54;10.57;;;4.35;;
55989;SDS011;41875;55.806;38.082;2023-04-25T06:19:22;11.77;;;4.15;;
55989;SDS011;41875;55.806;38.082;2023-04-25T06:21:51;11.43;;;4.35;;
55989;SDS011;41875;55.806;38.082;2023-04-25T06:24:19;9.48;;;4.30;;
55989;SDS011;41875;55.806;38.082;2023-04-25T06:26:49;8.50;;;3.80;;
55989;SDS011;41875;55.806;38.082;2023-04-25T06:31:48;11.02;;;4.05;;
55989;SDS011;41875;55.806;38.082;2023-04-25T06:34:17;10.30;;;4.18;;
55989;SDS011;41875;55.806;38.082;2023-04-25T06:36:46;12.63;;;4.28;;
55989;SDS011;41875;55.806;38.082;2023-04-25T06:39:15;13.05;;;4.05;;
55989;SDS011;41875;55.806;38.082;2023-04-25T06:41:44;9.68;;;3.97;;
55989;SDS011;41875;55.806;38.082;2023-04-25T06:44:32;11.52;;;3.97;;
55989;SDS011;41875;55.806;38.082;2023-04-25T06:47:02;7.43;;;3.35;;
55989;SDS011;41875;55.806;38.082;2023-04-25T06:49:31;9.38;;;3.78;;
55989;SDS011;41875;55.806;38.082;2023-04-25T06:52:00;10.82;;;3.67;;
55989;SDS011;41875;55.806;38.082;2023-04-25T06:54:29;13.82;;;3.97;;
55989;SDS011;41875;55.806;38.082;2023-04-25T06:57:04;9.23;;;3.75;;
55989;SDS011;41875;55.806;38.082;2023-04-25T06:59:34;9.32;;;3.92;;
55989;SDS011;41875;55.806;38.082;2023-04-25T07:02:03;8.20;;;3.88;;
55989;SDS011;41875;55.806;38.082;2023-04-25T07:04:33;10.43;;;3.45;;
55989;SDS011;41875;55.806;38.082;2023-04-25T07:07:02;7.55;;;3.80;;
55989;SDS011;41875;55.806;38.082;2023-04-25T07:09:40;10.68;;;3.50;;
55989;SDS011;41875;55.806;38.082;2023-04-25T07:12:09;8.30;;;3.40;;
55989;SDS011;41875;55.806;38.082;2023-04-25T07:14:39;10.57;;;3.75;;
55989;SDS011;41875;55.806;38.082;2023-04-25T07:17:09;10.60;;;3.50;;
55989;SDS011;41875;55.806;38.082;2023-04-25T07:19:38;10.02;;;4.13;;
55989;SDS011;41875;55.806;38.082;2023-04-25T07:22:08;9.25;;;3.60;;
55989;SDS011;41875;55.806;38.082;2023-04-25T07:24:39;9.52;;;3.70;;
55989;SDS011;41875;55.806;38.082;2023-04-25T07:27:11;8.43;;;3.92;;
55989;SDS011;41875;55.806;38.082;2023-04-25T07:29:55;9.77;;;3.75;;
55989;SDS011;41875;55.806;38.082;2023-04-25T07:32:24;9.07;;;3.88;;
55989;SDS011;41875;55.806;38.082;2023-04-25T07:34:55;9.65;;;3.67;;
55989;SDS011;41875;55.806;38.082;2023-04-25T07:37:23;8.95;;;3.00;;
55989;SDS011;41875;55.806;38.082;2023-04-25T07:40:12;7.25;;;3.13;;
55989;SDS011;41875;55.806;38.082;2023-04-25T07:42:46;7.90;;;3.50;;
55989;SDS011;41875;55.806;38.082;2023-04-25T07:45:21;6.80;;;3.08;;
55989;SDS011;41875;55.806;38.082;2023-04-25T07:47:51;8.20;;;3.03;;
55989;SDS011;41875;55.806;38.082;2023-04-25T07:50:20;6.85;;;2.88;;
55989;SDS011;41875;55.806;38.082;2023-04-25T07:52:49;6.80;;;2.50;;
55989;SDS011;41875;55.806;38.082;2023-04-25T07:55:26;6.97;;;2.50;;
55989;SDS011;41875;55.806;38.082;2023-04-25T07:58:15;5.57;;;2.75;;
55989;SDS011;41875;55.806;38.082;2023-04-25T08:00:53;7.45;;;2.78;;
55989;SDS011;41875;55.806;38.082;2023-04-25T08:03:39;6.30;;;2.63;;
55989;SDS011;41875;55.806;38.082;2023-04-25T08:06:14;4.40;;;2.13;;
55989;SDS011;41875;55.806;38.082;2023-04-25T08:08:55;7.15;;;2.70;;
55989;SDS011;41875;55.806;38.082;2023-04-25T08:11:31;7.43;;;2.88;;
55989;SDS011;41875;55.806;38.082;2023-04-25T08:14:00;5.68;;;2.70;;
55989;SDS011;41875;55.806;38.082;2023-04-25T08:16:30;5.78;;;2.75;;
55989;SDS011;41875;55.806;38.082;2023-04-25T08:19:00;10.40;;;3.70;;
55989;SDS011;41875;55.806;38.082;2023-04-25T08:21:29;11.05;;;3.50;;
55989;SDS011;41875;55.806;38.082;2023-04-25T08:24:01;8.82;;;4.28;;
55989;SDS011;41875;55.806;38.082;2023-04-25T08:26:34;8.77;;;3.60;;
55989;SDS011;41875;55.806;38.082;2023-04-25T08:29:06;9.73;;;4.43;;
55989;SDS011;41875;55.806;38.082;2023-04-25T08:31:39;8.85;;;3.72;;
55989;SDS011;41875;55.806;38.082;2023-04-25T08:34:08;9.25;;;3.45;;
55989;SDS011;41875;55.806;38.082;2023-04-25T08:36:42;8.23;;;3.38;;
55989;SDS011;41875;55.806;38.082;2023-04-25T08:39:37;8.32;;;2.72;;
55989;SDS011;41875;55.806;38.082;2023-04-25T08:42:33;4.97;;;2.58;;
55989;SDS011;41875;55.806;38.082;2023-04-25T08:45:03;6.50;;;2.75;;
55989;SDS011;41875;55.806;38.082;2023-04-25T08:47:38;5.07;;;2.33;;
55989;SDS011;41875;55.806;38.082;2023-04-25T08:50:08;6.82;;;2.85;;
55989;SDS011;41875;55.806;38.082;2023-04-25T08:52:39;10.40;;;2.90;;
55989;SDS011;41875;55.806;38.082;2023-04-25T08:55:12;8.25;;;3.20;;
55989;SDS011;41875;55.806;38.082;2023-04-25T08:57:41;6.53;;;3.47;;
55989;SDS011;41875;55.806;38.082;2023-04-25T09:00:11;6.60;;;2.90;;
55989;SDS011;41875;55.806;38.082;2023-04-25T09:02:44;8.13;;;2.85;;
55989;SDS011;41875;55.806;38.082;2023-04-25T09:05:15;9.77;;;3.20;;
55989;SDS011;41875;55.806;38.082;2023-04-25T09:07:46;7.95;;;3.22;;
55989;SDS011;41875;55.806;38.082;2023-04-25T09:10:16;7.88;;;3.25;;
55989;SDS011;41875;55.806;38.082;2023-04-25T09:13:01;7.45;;;3.30;;
55989;SDS011;41875;55.806;38.082;2023-04-25T09:15:48;7.75;;;3.00;;
55989;SDS011;41875;55.806;38.082;2023-04-25T09:18:39;7.60;;;3.00;;
55989;SDS011;41875;55.806;38.082;2023-04-25T09:21:15;8.60;;;3.35;;
55989;SDS011;41875;55.806;38.082;2023-04-25T09:23:46;4.80;;;2.67;;
55989;SDS011;41875;55.806;38.082;2023-04-25T09:26:20;4.80;;;2.63;;
55989;SDS011;41875;55.806;38.082;2023-04-25T09:28:49;4.55;;;2.40;;
55989;SDS011;41875;55.806;38.082;2023-04-25T09:31:37;5.93;;;2.47;;
55989;SDS011;41875;55.806;38.082;2023-04-25T09:34:09;4.75;;;2.38;;
55989;SDS011;41875;55.806;38.082;2023-04-25T09:36:48;6.90;;;2.63;;
55989;SDS011;41875;55.806;38.082;2023-04-25T09:39:36;4.82;;;2.40;;
55989;SDS011;41875;55.806;38.082;2023-04-25T09:42:12;7.68;;;2.58;;
55989;SDS011;41875;55.806;38.082;2023-04-25T09:44:42;12.07;;;2.60;;
55989;SDS011;41875;55.806;38.082;2023-04-25T09:47:13;7.50;;;2.55;;
55989;SDS011;41875;55.806;38.082;2023-04-25T09:49:46;4.78;;;2.22;;
55989;SDS011;41875;55.806;38.082;2023-04-25T09:52:15;6.35;;;2.30;;
55989;SDS011;41875;55.806;38.082;2023-04-25T09:54:57;5.10;;;2.22;;
55989;SDS011;41875;55.806;38.082;2023-04-25T09:57:31;6.22;;;2.33;;
55989;SDS011;41875;55.806;38.082;2023-04-25T10:00:01;5.05;;;2.40;;
55989;SDS011;41875;55.806;38.082;2023-04-25T10:02:42;5.07;;;2.30;;
55989;SDS011;41875;55.806;38.082;2023-04-25T10:05:36;5.47;;;2.28;;
55989;SDS011;41875;55.806;38.082;2023-04-25T10:08:05;4.35;;;1.88;;
55989;SDS011;41875;55.806;38.082;2023-04-25T10:10:35;4.63;;;2.00;;
55989;SDS011;41875;55.806;38.082;2023-04-25T10:13:05;4.95;;;1.98;;
55989;SDS011;41875;55.806;38.082;2023-04-25T10:15:35;8.13;;;2.20;;
55989;SDS011;41875;55.806;38.082;2023-04-25T10:18:06;4.47;;;1.98;;
55989;SDS011;41875;55.806;38.082;2023-04-25T10:23:06;7.05;;;2.47;;
55989;SDS011;41875;55.806;38.082;2023-04-25T10:25:41;7.05;;;2.38;;
55989;SDS011;41875;55.806;38.082;2023-04-25T10:30:38;7.90;;;2.22;;
55989;SDS011;41875;55.806;38.082;2023-04-25T10:33:34;6.88;;;2.90;;
55989;SDS011;41875;55.806;38.082;2023-04-25T10:36:10;7.43;;;3.33;;
55989;SDS011;41875;55.806;38.082;2023-04-25T10:38:39;7.47;;;2.85;;
55989;SDS011;41875;55.806;38.082;2023-04-25T10:41:08;6.05;;;2.38;;
55989;SDS011;41875;55.806;38.082;2023-04-25T10:43:38;7.00;;;2.50;;
55989;SDS011;41875;55.806;38.082;2023-04-25T10:46:17;9.10;;;3.50;;
55989;SDS011;41875;55.806;38.082;2023-04-25T10:48:47;6.80;;;2.83;;
55989;SDS011;41875;55.806;38.082;2023-04-25T10:51:19;6.13;;;2.95;;
55989;SDS011;41875;55.806;38.082;2023-04-25T10:56:37;7.65;;;3.28;;
55989;SDS011;41875;55.806;38.082;2023-04-25T10:59:08;8.52;;;3.60;;
55989;SDS011;41875;55.806;38.082;2023-04-25T11:01:38;8.05;;;3.40;;
55989;SDS011;41875;55.806;38.082;2023-04-25T11:04:21;7.82;;;3.63;;
55989;SDS011;41875;55.806;38.082;2023-04-25T11:06:55;7.28;;;3.50;;
55989;SDS011;41875;55.806;38.082;2023-04-25T11:09:33;14.90;;;4.85;;
55989;SDS011;41875;55.806;38.082;2023-04-25T11:14:30;10.95;;;3.97;;
55989;SDS011;41875;55.806;38.082;2023-04-25T11:16:59;9.02;;;3.53;;
55989;SDS011;41875;55.806;38.082;2023-04-25T11:19:29;11.00;;;4.05;;
55989;SDS011;41875;55.806;38.082;2023-04-25T11:24:28;13.63;;;4.30;;
55989;SDS011;41875;55.806;38.082;2023-04-25T11:26:57;14.65;;;4.47;;
55989;SDS011;41875;55.806;38.082;2023-04-25T11:31:55;11.15;;;4.20;;
55989;SDS011;41875;55.806;38.082;2023-04-25T11:34:25;9.55;;;3.63;;
55989;SDS011;41875;55.806;38.082;2023-04-25T11:36:54;11.25;;;3.78;;
55989;SDS011;41875;55.806;38.082;2023-04-25T11:39:24;14.55;;;4.25;;
55989;SDS011;41875;55.806;38.082;2023-04-25T11:41:54;13.48;;;3.90;;
55989;SDS011;41875;55.806;38.082;2023-04-25T11:44:23;8.30;;;3.22;;
55989;SDS011;41875;55.806;38.082;2023-04-25T11:46:52;10.15;;;3.35;;
55989;SDS011;41875;55.806;38.082;2023-04-25T11:49:21;9.77;;;3.60;;
55989;SDS011;41875;55.806;38.082;2023-04-25T11:51:51;8.23;;;3.28;;
55989;SDS011;41875;55.806;38.082;2023-04-25T11:54:20;7.13;;;3.17;;
55989;SDS011;41875;55.806;38.082;2023-04-25T11:56:50;5.97;;;2.70;;
55989;SDS011;41875;55.806;38.082;2023-04-25T11:59:18;8.90;;;3.60;;
55989;SDS011;41875;55.806;38.082;2023-04-25T12:01:52;8.30;;;3.30;;
55989;SDS011;41875;55.806;38.082;2023-04-25T12:04:21;8.43;;;3.47;;
55989;SDS011;41875;55.806;38.082;2023-04-25T12:06:52;11.63;;;3.50;;
55989;SDS011;41875;55.806;38.082;2023-04-25T12:09:27;7.75;;;3.17;;
55989;SDS011;41875;55.806;38.082;2023-04-25T12:11:59;10.75;;;3.92;;
55989;SDS011;41875;55.806;38.082;2023-04-25T12:14:30;6.78;;;2.30;;
55989;SDS011;41875;55.806;38.082;2023-04-25T12:17:00;7.25;;;2.60;;
55989;SDS011;41875;55.806;38.082;2023-04-25T12:19:32;7.07;;;3.30;;
55989;SDS011;41875;55.806;38.082;2023-04-25T12:22:02;5.57;;;3.03;;
55989;SDS011;41875;55.806;38.082;2023-04-25T12:24:33;5.18;;;2.25;;
55989;SDS011;41875;55.806;38.082;2023-04-25T12:27:06;5.53;;;2.70;;
55989;SDS011;41875;55.806;38.082;2023-04-25T12:29:37;5.63;;;2.72;;
55989;SDS011;41875;55.806;38.082;2023-04-25T12:32:15;9.73;;;3.00;;
55989;SDS011;41875;55.806;38.082;2023-04-25T12:34:44;7.72;;;3.05;;
55989;SDS011;41875;55.806;38.082;2023-04-25T12:37:12;7.05;;;2.80;;
55989;SDS011;41875;55.806;38.082;2023-04-25T12:39:42;7.07;;;3.47;;
55989;SDS011;41875;55.806;38.082;2023-04-25T12:42:12;9.02;;;3.58;;
55989;SDS011;41875;55.806;38.082;2023-04-25T12:44:40;10.07;;;3.47;;
55989;SDS011;41875;55.806;38.082;2023-04-25T12:47:09;10.70;;;3.80;;
55989;SDS011;41875;55.806;38.082;2023-04-25T12:52:06;9.52;;;3.60;;
55989;SDS011;41875;55.806;38.082;2023-04-25T12:54:34;8.95;;;3.72;;
55989;SDS011;41875;55.806;38.082;2023-04-25T12:57:03;7.15;;;2.97;;
55989;SDS011;41875;55.806;38.082;2023-04-25T12:59:33;6.72;;;3.67;;
55989;SDS011;41875;55.806;38.082;2023-04-25T13:02:01;6.13;;;3.35;;
55989;SDS011;41875;55.806;38.082;2023-04-25T13:04:30;8.70;;;4.00;;
55989;SDS011;41875;55.806;38.082;2023-04-25T13:06:59;9.27;;;3.30;;
55989;SDS011;41875;55.806;38.082;2023-04-25T13:09:28;7.05;;;3.50;;
55989;SDS011;41875;55.806;38.082;2023-04-25T13:11:57;5.97;;;3.20;;
55989;SDS011;41875;55.806;38.082;2023-04-25T13:14:25;9.27;;;3.60;;
55989;SDS011;41875;55.806;38.082;2023-04-25T13:16:55;8.38;;;3.70;;
55989;SDS011;41875;55.806;38.082;2023-04-25T13:19:24;7.65;;;3.63;;
55989;SDS011;41875;55.806;38.082;2023-04-25T13:21:52;7.55;;;3.55;;
55989;SDS011;41875;55.806;38.082;2023-04-25T13:24:21;6.28;;;3.65;;
55989;SDS011;41875;55.806;38.082;2023-04-25T13:26:49;7.30;;;3.70;;
55989;SDS011;41875;55.806;38.082;2023-04-25T13:29:18;7.43;;;3.42;;
55989;SDS011;41875;55.806;38.082;2023-04-25T13:31:46;8.35;;;3.15;;
55989;SDS011;41875;55.806;38.082;2023-04-25T13:34:16;9.00;;;3.20;;
55989;SDS011;41875;55.806;38.082;2023-04-25T13:36:45;6.47;;;3.25;;
55989;SDS011;41875;55.806;38.082;2023-04-25T13:39:13;4.95;;;2.78;;
55989;SDS011;41875;55.806;38.082;2023-04-25T13:41:42;4.63;;;2.63;;
55989;SDS011;41875;55.806;38.082;2023-04-25T13:44:10;7.72;;;2.85;;
55989;SDS011;41875;55.806;38.082;2023-04-25T13:46:39;6.93;;;3.00;;
55989;SDS011;41875;55.806;38.082;2023-04-25T13:49:13;6.47;;;3.30;;
55989;SDS011;41875;55.806;38.082;2023-04-25T13:51:44;6.85;;;3.05;;
55989;SDS011;41875;55.806;38.082;2023-04-25T13:54:12;6.85;;;3.20;;
55989;SDS011;41875;55.806;38.082;2023-04-25T13:56:41;7.00;;;3.30;;
55989;SDS011;41875;55.806;38.082;2023-04-25T13:59:09;4.85;;;2.58;;
55989;SDS011;41875;55.806;38.082;2023-04-25T14:01:38;6.00;;;2.78;;
55989;SDS011;41875;55.806;38.082;2023-04-25T14:04:07;6.80;;;3.00;;
55989;SDS011;41875;55.806;38.082;2023-04-25T14:06:36;4.72;;;2.50;;
55989;SDS011;41875;55.806;38.082;2023-04-25T14:09:06;5.60;;;2.70;;
55989;SDS011;41875;55.806;38.082;2023-04-25T14:11:37;9.85;;;3.35;;
55989;SDS011;41875;55.806;38.082;2023-04-25T14:14:05;5.97;;;2.83;;
55989;SDS011;41875;55.806;38.082;2023-04-25T14:16:33;8.38;;;3.05;;
55989;SDS011;41875;55.806;38.082;2023-04-25T14:19:02;6.22;;;2.50;;
55989;SDS011;41875;55.806;38.082;2023-04-25T14:21:31;5.25;;;2.28;;
55989;SDS011;41875;55.806;38.082;2023-04-25T14:24:03;6.13;;;3.03;;
55989;SDS011;41875;55.806;38.082;2023-04-25T14:26:34;5.30;;;2.70;;
55989;SDS011;41875;55.806;38.082;2023-04-25T14:29:03;5.63;;;2.42;;
55989;SDS011;41875;55.806;38.082;2023-04-25T14:31:33;7.28;;;2.40;;
55989;SDS011;41875;55.806;38.082;2023-04-25T14:34:02;14.20;;;2.90;;
55989;SDS011;41875;55.806;38.082;2023-04-25T14:36:30;6.13;;;2.50;;
55989;SDS011;41875;55.806;38.082;2023-04-25T14:38:59;6.47;;;2.47;;
55989;SDS011;41875;55.806;38.082;2023-04-25T14:41:28;4.40;;;2.55;;
55989;SDS011;41875;55.806;38.082;2023-04-25T14:43:58;5.15;;;2.38;;
55989;SDS011;41875;55.806;38.082;2023-04-25T14:46:26;6.35;;;2.72;;
55989;SDS011;41875;55.806;38.082;2023-04-25T14:48:55;4.78;;;2.85;;
55989;SDS011;41875;55.806;38.082;2023-04-25T14:51:24;4.70;;;2.45;;
55989;SDS011;41875;55.806;38.082;2023-04-25T14:53:53;9.75;;;2.80;;
55989;SDS011;41875;55.806;38.082;2023-04-25T14:56:21;6.55;;;2.80;;
55989;SDS011;41875;55.806;38.082;2023-04-25T15:01:20;6.63;;;2.95;;
55989;SDS011;41875;55.806;38.082;2023-04-25T15:03:49;6.85;;;3.13;;
55989;SDS011;41875;55.806;38.082;2023-04-25T15:06:19;6.53;;;3.10;;
55989;SDS011;41875;55.806;38.082;2023-04-25T15:08:48;6.55;;;3.00;;
55989;SDS011;41875;55.806;38.082;2023-04-25T15:13:45;5.88;;;2.83;;
55989;SDS011;41875;55.806;38.082;2023-04-25T15:16:13;9.55;;;3.10;;
55989;SDS011;41875;55.806;38.082;2023-04-25T15:18:43;7.75;;;3.70;;
55989;SDS011;41875;55.806;38.082;2023-04-25T15:21:12;8.60;;;3.10;;
55989;SDS011;41875;55.806;38.082;2023-04-25T15:23:40;10.13;;;3.38;;
55989;SDS011;41875;55.806;38.082;2023-04-25T15:26:09;10.23;;;3.25;;
55989;SDS011;41875;55.806;38.082;2023-04-25T15:28:37;6.63;;;2.92;;
55989;SDS011;41875;55.806;38.082;2023-04-25T15:31:06;6.35;;;3.03;;
55989;SDS011;41875;55.806;38.082;2023-04-25T15:33:35;6.47;;;2.97;;
55989;SDS011;41875;55.806;38.082;2023-04-25T15:36:05;7.07;;;2.95;;
55989;SDS011;41875;55.806;38.082;2023-04-25T15:38:34;6.72;;;2.97;;
55989;SDS011;41875;55.806;38.082;2023-04-25T15:41:05;7.75;;;3.60;;
55989;SDS011;41875;55.806;38.082;2023-04-25T15:43:36;8.10;;;3.10;;
55989;SDS011;41875;55.806;38.082;2023-04-25T15:46:06;7.13;;;3.00;;
55989;SDS011;41875;55.806;38.082;2023-04-25T15:48:34;7.97;;;3.28;;